Berezovo, Russia
Current Conditions -  °F | °C
As of 12:30 AM on Tuesday 23 Dec 2014 (Local Time) from USHH Reporting Station
Overcast Overcast  
Wind Chill: 11°   Ceiling: 8000
Heat Index: 21°   Visibility: 6mi
Dew Point: 18°   Wind: 9mph
Humidity: 86%   Direction: 160°SSE
Pressure: 29.8"   Gusts: NA
Location:  63.93°N, 65.05°E
Report Text: USHH 221930Z 16004MPS 9999 FEW033 OVC080 M06/M08 Q1009 TEMPO3000 -SN BKN007 RMK QFE753 24////36
Loading
Personal Weather Stations






























Interactive Weather Map New forecast layout! Learn more

10-Day Weather Forecast

Advertisements
Track Severe Weather on mobile